createdAt,value
2024-01-20T00:00:49.943Z,2.08
2024-01-20T00:01:48.948Z,2.02
2024-01-20T00:02:49.953Z,2.09
2024-01-20T00:03:48.970Z,2.05
2024-01-20T00:04:49.134Z,2.01
2024-01-20T00:05:50.008Z,2.05
2024-01-20T00:06:49.059Z,2.05
2024-01-20T00:07:50.084Z,2.04
2024-01-20T00:08:49.072Z,2.14
2024-01-20T00:09:51.238Z,2.04
2024-01-20T00:10:50.176Z,2.08
2024-01-20T00:11:49.144Z,2.05
2024-01-20T00:12:50.170Z,2.09
2024-01-20T00:13:49.299Z,2.08
2024-01-20T00:14:49.225Z,2.07
2024-01-20T00:15:50.263Z,2.09
2024-01-20T00:16:49.361Z,2.11
2024-01-20T00:17:50.425Z,2.02
2024-01-20T00:18:49.406Z,1.95
2024-01-20T00:19:50.002Z,2.04
2024-01-20T00:20:50.387Z,1.98
2024-01-20T00:21:49.373Z,2.04
2024-01-20T00:22:50.417Z,2.04
2024-01-20T00:23:49.459Z,2.08
2024-01-20T00:24:49.483Z,2.05
2024-01-20T00:25:50.527Z,2.08
2024-01-20T00:26:49.513Z,2.08
2024-01-20T00:27:50.534Z,2.08
2024-01-20T00:28:49.577Z,2.01
2024-01-20T00:29:49.564Z,2.02
2024-01-20T00:30:50.595Z,2.08
2024-01-20T00:31:49.661Z,2.04
2024-01-20T00:32:50.728Z,1.98
2024-01-20T00:33:49.777Z,2.15
2024-01-20T00:34:59.760Z,2.22
2024-01-20T00:35:50.792Z,2.15
2024-01-20T00:36:49.724Z,2.14
2024-01-20T00:37:50.815Z,2.09
2024-01-20T00:38:49.793Z,2.09
2024-01-20T00:39:49.797Z,2.04
2024-01-20T00:40:50.852Z,2.05
2024-01-20T00:41:49.850Z,2.25
2024-01-20T00:42:50.871Z,2.15
2024-01-20T00:43:49.939Z,2.22
2024-01-20T00:44:49.908Z,2.05
2024-01-20T00:45:50.973Z,2.15
2024-01-20T00:46:50.017Z,2.18
2024-01-20T00:47:51.024Z,2.18
2024-01-20T00:48:50.052Z,2.12
2024-01-20T00:49:50.070Z,2.15
2024-01-20T00:50:51.072Z,2.11
2024-01-20T00:51:50.077Z,2.19
2024-01-20T00:52:51.159Z,2.20
2024-01-20T00:53:50.120Z,2.19
2024-01-20T00:54:50.155Z,2.22
2024-01-20T00:55:51.284Z,2.19
2024-01-20T00:56:50.239Z,2.18
2024-01-20T00:57:51.247Z,2.19
2024-01-20T00:58:50.286Z,2.18
2024-01-20T00:59:50.263Z,2.22
2024-01-20T01:00:51.325Z,2.19
2024-01-20T01:01:50.379Z,2.20
2024-01-20T01:02:51.394Z,1.95
2024-01-20T01:03:50.412Z,2.00
2024-01-20T01:04:50.406Z,2.02
2024-01-20T01:05:51.453Z,2.08
2024-01-20T01:06:50.434Z,2.07
2024-01-20T01:07:51.557Z,2.08
2024-01-20T01:08:50.484Z,2.00
2024-01-20T01:09:50.509Z,1.83
2024-01-20T01:10:51.613Z,1.81
2024-01-20T01:11:50.541Z,1.85
2024-01-20T01:12:51.613Z,1.82
2024-01-20T01:13:50.654Z,1.82
2024-01-20T01:14:50.635Z,1.81
2024-01-20T01:15:53.211Z,1.79
2024-01-20T01:16:50.725Z,1.85
2024-01-20T01:17:51.795Z,1.75
2024-01-20T01:18:50.729Z,1.85
2024-01-20T01:19:50.751Z,1.79
2024-01-20T01:20:51.769Z,1.82
2024-01-20T01:21:50.793Z,1.90
2024-01-20T01:22:51.959Z,1.88
2024-01-20T01:23:50.868Z,1.90
2024-01-20T01:24:50.919Z,1.81
2024-01-20T01:25:51.920Z,1.83
2024-01-20T01:26:50.953Z,1.83
2024-01-20T01:27:51.934Z,1.82
2024-01-20T01:28:50.959Z,1.90
2024-01-20T01:29:51.010Z,1.92
2024-01-20T01:30:52.057Z,1.88
2024-01-20T01:31:51.036Z,1.92
2024-01-20T01:32:52.073Z,1.88
2024-01-20T01:33:51.116Z,1.77
2024-01-20T01:34:51.135Z,1.92
2024-01-20T01:35:52.114Z,2.02
2024-01-20T01:36:51.135Z,2.00
2024-01-20T01:37:52.179Z,1.86
2024-01-20T01:38:51.180Z,1.92
2024-01-20T01:39:51.187Z,1.98
2024-01-20T01:40:52.261Z,1.88
2024-01-20T01:41:51.275Z,2.00
2024-01-20T01:42:52.288Z,1.93
2024-01-20T01:43:51.335Z,1.92
2024-01-20T01:44:51.326Z,1.95
2024-01-20T01:45:52.425Z,1.92
2024-01-20T01:46:51.455Z,1.90
2024-01-20T01:47:52.451Z,1.85
2024-01-20T01:48:51.493Z,1.79
2024-01-20T01:49:51.488Z,1.77
2024-01-20T01:50:52.484Z,1.75
2024-01-20T01:51:51.481Z,1.83
2024-01-20T01:52:52.523Z,1.75
2024-01-20T01:53:51.573Z,1.85
2024-01-20T01:54:51.578Z,1.98
2024-01-20T01:55:52.583Z,1.90
2024-01-20T01:56:51.689Z,1.89
2024-01-20T01:57:52.618Z,1.98
2024-01-20T01:58:51.736Z,1.98
2024-01-20T01:59:51.679Z,1.92
2024-01-20T02:00:52.740Z,1.90
2024-01-20T02:01:51.729Z,1.89
2024-01-20T02:02:52.778Z,1.95
2024-01-20T02:03:51.951Z,2.07
2024-01-20T02:04:51.775Z,1.95
2024-01-20T02:05:52.938Z,1.95
2024-01-20T02:06:51.978Z,1.92
2024-01-20T02:07:52.862Z,1.86
2024-01-20T02:08:51.927Z,1.90
2024-01-20T02:09:51.907Z,1.95
2024-01-20T02:10:52.951Z,1.90
2024-01-20T02:11:52.017Z,1.90
2024-01-20T02:12:52.970Z,1.92
2024-01-20T02:13:51.977Z,1.79
2024-01-20T02:14:52.050Z,1.79
2024-01-20T02:15:53.045Z,1.90
2024-01-20T02:16:52.091Z,1.88
2024-01-20T02:17:53.224Z,1.92
2024-01-20T02:18:52.167Z,1.95
2024-01-20T02:19:52.130Z,1.93
2024-01-20T02:20:53.157Z,1.82
2024-01-20T02:21:52.169Z,1.88
2024-01-20T02:22:53.217Z,1.95
2024-01-20T02:23:52.256Z,1.81
2024-01-20T02:24:52.248Z,1.90
2024-01-20T02:25:53.263Z,1.90
2024-01-20T02:26:52.305Z,1.98
2024-01-20T02:27:53.313Z,1.85
2024-01-20T02:28:52.339Z,1.90
2024-01-20T02:29:52.335Z,1.83
2024-01-20T02:30:53.375Z,1.79
2024-01-20T02:31:52.372Z,1.77
2024-01-20T02:32:53.548Z,1.89
2024-01-20T02:33:52.610Z,1.89
2024-01-20T02:34:52.423Z,1.90
2024-01-20T02:35:53.485Z,1.77
2024-01-20T02:36:52.488Z,1.77
2024-01-20T02:37:53.516Z,1.82
2024-01-20T02:38:52.634Z,1.83
2024-01-20T02:39:52.550Z,1.83
2024-01-20T02:40:53.583Z,1.81
2024-01-20T02:41:52.594Z,1.82
2024-01-20T02:42:53.618Z,1.85
2024-01-20T02:43:52.662Z,1.79
2024-01-20T02:44:52.803Z,1.88
2024-01-20T02:45:53.690Z,1.90
2024-01-20T02:46:52.701Z,1.93
2024-01-20T02:47:53.882Z,1.90
2024-01-20T02:48:52.828Z,1.90
2024-01-20T02:49:52.859Z,1.95
2024-01-20T02:50:53.847Z,1.92
2024-01-20T02:51:52.840Z,1.93
2024-01-20T02:52:53.870Z,1.90
2024-01-20T02:53:52.888Z,1.93
2024-01-20T02:54:52.890Z,1.88
2024-01-20T02:55:53.932Z,1.86
2024-01-20T02:56:52.979Z,1.95
2024-01-20T02:57:53.967Z,1.98
2024-01-20T02:58:52.985Z,2.00
2024-01-20T02:59:53.049Z,1.88
2024-01-20T03:00:54.070Z,1.90
2024-01-20T03:01:53.053Z,1.92
2024-01-20T03:02:54.179Z,2.05
2024-01-20T03:03:53.159Z,2.01
2024-01-20T03:04:53.232Z,2.04
2024-01-20T03:05:54.238Z,2.00
2024-01-20T03:06:53.181Z,1.92
2024-01-20T03:07:54.227Z,1.89
2024-01-20T03:08:53.252Z,1.95
2024-01-20T03:09:53.250Z,1.95
2024-01-20T03:10:54.280Z,1.92
2024-01-20T03:11:53.347Z,2.01
2024-01-20T03:12:54.317Z,2.00
2024-01-20T03:13:53.340Z,1.98
2024-01-20T03:14:53.410Z,1.98
2024-01-20T03:15:54.409Z,2.02
2024-01-20T03:16:53.417Z,2.08
2024-01-20T03:17:54.516Z,2.05
2024-01-20T03:18:53.489Z,2.05
2024-01-20T03:19:53.525Z,2.08
2024-01-20T03:20:54.551Z,1.92
2024-01-20T03:21:53.533Z,1.98
2024-01-20T03:22:54.565Z,2.02
2024-01-20T03:23:53.610Z,1.95
2024-01-20T03:24:53.633Z,1.93
2024-01-20T03:25:54.635Z,1.92
2024-01-20T03:26:55.035Z,2.00
2024-01-20T03:27:54.701Z,2.02
2024-01-20T03:28:53.694Z,2.04
2024-01-20T03:29:53.753Z,2.04
2024-01-20T03:30:54.751Z,1.98
2024-01-20T03:31:53.767Z,2.05
2024-01-20T03:32:54.902Z,2.02
2024-01-20T03:33:53.890Z,2.04
2024-01-20T03:34:53.832Z,2.04
2024-01-20T03:35:54.893Z,2.01
2024-01-20T03:36:53.885Z,2.04
2024-01-20T03:37:54.915Z,2.00
2024-01-20T03:38:53.937Z,1.90
2024-01-20T03:39:53.941Z,1.92
2024-01-20T03:40:54.978Z,1.95
2024-01-20T03:41:54.019Z,2.08
2024-01-20T03:42:55.024Z,1.92
2024-01-20T03:43:54.038Z,1.88
2024-01-20T03:44:54.062Z,2.02
2024-01-20T03:45:55.100Z,1.93
2024-01-20T03:46:54.106Z,2.04
2024-01-20T03:47:55.282Z,1.90
2024-01-20T03:48:54.377Z,2.02
2024-01-20T03:49:54.299Z,1.95
2024-01-20T03:50:55.244Z,1.93
2024-01-20T03:51:54.225Z,1.95
2024-01-20T03:52:55.261Z,1.89
2024-01-20T03:53:54.305Z,1.85
2024-01-20T03:54:54.293Z,1.90
2024-01-20T03:55:55.338Z,1.90
2024-01-20T03:56:54.377Z,1.90
2024-01-20T03:57:55.382Z,2.00
2024-01-20T03:58:54.410Z,1.98
2024-01-20T03:59:54.459Z,2.05
2024-01-20T04:00:55.462Z,2.07
2024-01-20T04:01:54.466Z,2.05
2024-01-20T04:02:55.499Z,2.05
2024-01-20T04:03:54.581Z,2.12
2024-01-20T04:04:54.530Z,2.05
2024-01-20T04:05:55.624Z,2.08
2024-01-20T04:06:54.564Z,2.02
2024-01-20T04:07:55.618Z,2.14
2024-01-20T04:08:54.635Z,2.19
2024-01-20T04:09:54.663Z,2.20
2024-01-20T04:10:55.679Z,2.22
2024-01-20T04:11:54.707Z,2.11
2024-01-20T04:12:55.736Z,2.09
2024-01-20T04:13:54.733Z,2.19
2024-01-20T04:14:54.768Z,2.20
2024-01-20T04:15:55.798Z,2.19
2024-01-20T04:16:54.814Z,2.19
2024-01-20T04:17:55.990Z,2.22
2024-01-20T04:18:54.932Z,2.20
2024-01-20T04:19:55.843Z,2.32
2024-01-20T04:20:55.929Z,2.22
2024-01-20T04:21:54.942Z,2.20
2024-01-20T04:22:55.963Z,2.25
2024-01-20T04:23:54.980Z,2.20
2024-01-20T04:24:55.000Z,2.25
2024-01-20T04:25:56.028Z,2.30
2024-01-20T04:26:55.048Z,2.33
2024-01-20T04:27:56.074Z,2.33
2024-01-20T04:28:55.089Z,2.32
2024-01-20T04:29:55.137Z,2.33
2024-01-20T04:30:56.140Z,2.29
2024-01-20T04:31:55.232Z,2.25
2024-01-20T04:32:56.329Z,2.33
2024-01-20T04:33:55.266Z,2.14
2024-01-20T04:34:55.229Z,2.19
2024-01-20T04:35:56.301Z,2.15
2024-01-20T04:36:55.281Z,2.19
2024-01-20T04:37:56.312Z,2.27
2024-01-20T04:38:55.343Z,2.25
2024-01-20T04:39:55.345Z,2.19
2024-01-20T04:40:56.381Z,2.22
2024-01-20T04:41:55.429Z,2.20
2024-01-20T04:42:56.480Z,2.25
2024-01-20T04:43:55.441Z,2.20
2024-01-20T04:44:55.517Z,2.25
2024-01-20T04:45:56.541Z,2.27
2024-01-20T04:46:55.497Z,2.18
2024-01-20T04:47:56.723Z,2.25
2024-01-20T04:48:55.735Z,2.18
2024-01-20T04:49:55.609Z,2.22
2024-01-20T04:50:56.648Z,2.27
2024-01-20T04:51:55.642Z,2.15
2024-01-20T04:52:56.686Z,2.15
2024-01-20T04:53:55.690Z,2.15
2024-01-20T04:54:55.689Z,2.07
2024-01-20T04:55:56.750Z,2.08
2024-01-20T04:56:55.810Z,2.12
2024-01-20T04:57:56.773Z,2.12
2024-01-20T04:58:55.784Z,2.14
2024-01-20T04:59:55.823Z,2.14
2024-01-20T05:00:56.874Z,2.23
2024-01-20T05:01:55.860Z,2.08
2024-01-20T05:02:56.902Z,2.09
2024-01-20T05:03:55.980Z,2.14
2024-01-20T05:04:55.913Z,2.05
2024-01-20T05:05:57.015Z,2.08
2024-01-20T05:06:56.033Z,2.18
2024-01-20T05:07:56.996Z,2.23
2024-01-20T05:08:56.060Z,2.19
2024-01-20T05:09:56.030Z,2.19
2024-01-20T05:10:57.072Z,2.26
2024-01-20T05:11:56.156Z,2.25
2024-01-20T05:12:57.141Z,2.32
2024-01-20T05:13:56.118Z,2.22
2024-01-20T05:14:56.168Z,2.25
2024-01-20T05:15:57.188Z,2.29
2024-01-20T05:16:56.215Z,2.27
2024-01-20T05:17:57.389Z,2.25
2024-01-20T05:18:56.390Z,2.23
2024-01-20T05:19:56.387Z,2.25
2024-01-20T05:20:57.357Z,2.22
2024-01-20T05:21:56.323Z,2.26
2024-01-20T05:22:57.354Z,2.20
2024-01-20T05:23:56.367Z,2.27
2024-01-20T05:24:56.393Z,2.36
2024-01-20T05:25:57.418Z,2.37
2024-01-20T05:26:56.511Z,2.30
2024-01-20T05:27:57.472Z,2.38
2024-01-20T05:28:56.475Z,2.32
2024-01-20T05:29:56.503Z,2.19
2024-01-20T05:30:57.543Z,2.14
2024-01-20T05:31:56.558Z,2.27
2024-01-20T05:32:57.652Z,2.27
2024-01-20T05:33:56.706Z,2.30
2024-01-20T05:34:56.640Z,2.33
2024-01-20T05:35:57.696Z,2.36
2024-01-20T05:36:56.680Z,2.41
2024-01-20T05:37:57.689Z,2.36
2024-01-20T05:38:56.724Z,2.44
2024-01-20T05:39:56.736Z,2.33
2024-01-20T05:40:57.768Z,2.47
2024-01-20T05:41:56.846Z,2.58
2024-01-20T05:42:57.836Z,2.50
2024-01-20T05:43:56.823Z,2.40
2024-01-20T05:44:56.882Z,2.47
2024-01-20T05:45:57.905Z,2.58
2024-01-20T05:46:56.931Z,2.55
2024-01-20T05:47:57.977Z,2.55
2024-01-20T05:48:57.176Z,2.50
2024-01-20T05:49:57.057Z,2.51
2024-01-20T05:50:58.211Z,2.47
2024-01-20T05:51:57.021Z,2.45
2024-01-20T05:52:58.062Z,2.47
2024-01-20T05:53:57.115Z,2.53
2024-01-20T05:54:57.100Z,2.40
2024-01-20T05:55:58.144Z,2.44
2024-01-20T05:56:57.188Z,2.50
2024-01-20T05:57:58.174Z,2.45
2024-01-20T05:58:57.184Z,2.51
2024-01-20T05:59:57.251Z,2.30
2024-01-20T06:00:58.343Z,2.41
2024-01-20T06:01:57.251Z,2.45
2024-01-20T06:02:58.432Z,2.44
2024-01-20T06:03:57.387Z,2.43
2024-01-20T06:04:57.392Z,2.44
2024-01-20T06:05:58.395Z,2.43
2024-01-20T06:06:57.377Z,2.45
2024-01-20T06:07:58.407Z,2.38
2024-01-20T06:08:57.469Z,2.43
2024-01-20T06:09:57.445Z,2.44
2024-01-20T06:10:58.492Z,2.36
2024-01-20T06:11:57.515Z,2.32
2024-01-20T06:12:58.541Z,2.29
2024-01-20T06:13:57.550Z,2.32
2024-01-20T06:14:57.698Z,2.18
2024-01-20T06:15:58.607Z,2.20
2024-01-20T06:16:57.628Z,2.27
2024-01-20T06:17:58.703Z,2.36
2024-01-20T06:18:57.738Z,2.32
2024-01-20T06:19:57.740Z,2.37
2024-01-20T06:20:58.797Z,2.27
2024-01-20T06:21:57.792Z,2.29
2024-01-20T06:22:58.758Z,2.33
2024-01-20T06:23:57.840Z,2.33
2024-01-20T06:24:58.018Z,2.26
2024-01-20T06:25:58.836Z,2.36
2024-01-20T06:26:57.871Z,2.30
2024-01-20T06:27:58.877Z,2.32
2024-01-20T06:28:57.905Z,2.29
2024-01-20T06:29:57.931Z,2.23
2024-01-20T06:30:58.968Z,2.20
2024-01-20T06:31:58.030Z,2.22
2024-01-20T06:32:59.105Z,2.26
2024-01-20T06:33:58.093Z,2.20
2024-01-20T06:34:58.038Z,2.15
2024-01-20T06:35:59.123Z,2.07
2024-01-20T06:36:58.149Z,2.20
2024-01-20T06:37:59.107Z,2.02
2024-01-20T06:38:58.132Z,2.04
2024-01-20T06:39:58.158Z,2.19
2024-01-20T06:40:59.186Z,2.15
2024-01-20T06:41:58.219Z,2.18
2024-01-20T06:42:59.258Z,2.15
2024-01-20T06:43:58.257Z,2.15
2024-01-20T06:45:00.170Z,2.14
2024-01-20T06:45:59.300Z,2.22
2024-01-20T06:46:58.361Z,2.14
2024-01-20T06:47:59.471Z,2.18
2024-01-20T06:48:58.504Z,2.05
2024-01-20T06:49:58.373Z,2.14
2024-01-20T06:50:59.469Z,2.15
2024-01-20T06:51:58.418Z,2.14
2024-01-20T06:52:59.474Z,2.15
2024-01-20T06:53:58.916Z,2.19
2024-01-20T06:54:58.502Z,2.19
2024-01-20T06:55:59.535Z,2.22
2024-01-20T06:56:58.588Z,2.26
2024-01-20T06:57:59.571Z,2.22
2024-01-20T06:58:58.588Z,2.18
2024-01-20T06:59:58.619Z,2.27
2024-01-20T07:00:59.707Z,2.32
2024-01-20T07:01:58.650Z,2.23
2024-01-20T07:02:59.739Z,2.23
2024-01-20T07:03:58.861Z,2.14
2024-01-20T07:04:58.730Z,2.18
2024-01-20T07:05:59.825Z,2.22
2024-01-20T07:06:58.775Z,2.19
2024-01-20T07:07:59.803Z,2.07
2024-01-20T07:08:58.848Z,2.19
2024-01-20T07:09:58.838Z,2.19
2024-01-20T07:10:59.881Z,2.22
2024-01-20T07:11:59.172Z,2.32
2024-01-20T07:12:59.945Z,2.18
2024-01-20T07:13:58.933Z,2.27
2024-01-20T07:14:59.028Z,2.20
2024-01-20T07:16:00.002Z,2.37
2024-01-20T07:16:59.012Z,2.14
2024-01-20T07:18:00.104Z,2.25
2024-01-20T07:18:59.152Z,2.36
2024-01-20T07:19:59.071Z,2.30
2024-01-20T07:21:00.150Z,2.44
2024-01-20T07:21:59.123Z,2.43
2024-01-20T07:23:00.178Z,2.48
2024-01-20T07:23:59.209Z,2.47
2024-01-20T07:24:59.210Z,2.51
2024-01-20T07:26:00.226Z,2.50
2024-01-20T07:26:59.341Z,2.51
2024-01-20T07:28:00.276Z,2.56
2024-01-20T07:29:00.517Z,2.53
2024-01-20T07:29:59.351Z,2.62
2024-01-20T07:31:00.345Z,2.76
2024-01-20T07:31:59.355Z,2.74
2024-01-20T07:33:00.636Z,2.73
2024-01-20T07:33:59.581Z,2.79
2024-01-20T07:34:59.467Z,2.71
2024-01-20T07:36:00.501Z,2.71
2024-01-20T07:36:59.476Z,2.63
2024-01-20T07:38:00.509Z,2.69
2024-01-20T07:38:59.607Z,2.73
2024-01-20T07:39:59.589Z,2.65
2024-01-20T07:41:00.584Z,2.65
2024-01-20T07:41:59.648Z,2.61
2024-01-20T07:43:00.683Z,2.69
2024-01-20T07:43:59.653Z,2.77
2024-01-20T07:44:59.681Z,2.77
2024-01-20T07:46:00.715Z,2.80
2024-01-20T07:46:59.733Z,2.83
2024-01-20T07:48:00.824Z,2.69
2024-01-20T07:48:59.835Z,2.68
2024-01-20T07:49:59.789Z,2.73
2024-01-20T07:51:00.880Z,2.69
2024-01-20T07:51:59.829Z,2.81
2024-01-20T07:53:00.864Z,2.92
2024-01-20T07:53:59.948Z,2.83
2024-01-20T07:54:59.913Z,2.71
2024-01-20T07:56:00.940Z,2.79
2024-01-20T07:56:59.987Z,2.73
2024-01-20T07:58:01.006Z,2.80
2024-01-20T07:59:00.001Z,2.84
2024-01-20T08:00:00.121Z,2.90
2024-01-20T08:01:01.092Z,2.86
2024-01-20T08:02:00.072Z,2.83
2024-01-20T08:03:01.141Z,2.90
2024-01-20T08:04:00.157Z,2.97
2024-01-20T08:05:00.187Z,3.01
2024-01-20T08:06:01.282Z,2.92
2024-01-20T08:07:00.292Z,2.90
2024-01-20T08:08:01.228Z,2.84
2024-01-20T08:09:00.377Z,2.81
2024-01-20T08:10:00.328Z,2.90
2024-01-20T08:11:01.305Z,2.92
2024-01-20T08:12:00.371Z,2.87
2024-01-20T08:13:01.373Z,2.86
2024-01-20T08:14:00.354Z,2.76
2024-01-20T08:15:00.442Z,2.76
2024-01-20T08:16:01.415Z,2.83
2024-01-20T08:17:00.450Z,2.86
2024-01-20T08:18:01.529Z,2.86
2024-01-20T08:19:00.616Z,2.89
2024-01-20T08:20:00.660Z,2.97
2024-01-20T08:21:01.554Z,2.81
2024-01-20T08:22:00.572Z,2.81
2024-01-20T08:23:01.588Z,2.87
2024-01-20T08:24:00.653Z,2.92
2024-01-20T08:25:00.666Z,2.86
2024-01-20T08:26:01.642Z,2.81
2024-01-20T08:27:00.706Z,2.69
2024-01-20T08:28:01.695Z,2.79
2024-01-20T08:29:00.738Z,2.77
2024-01-20T08:30:00.857Z,2.76
2024-01-20T08:31:01.858Z,2.86
2024-01-20T08:32:00.844Z,2.87
2024-01-20T08:33:04.350Z,2.87
2024-01-20T08:34:00.950Z,2.87
2024-01-20T08:35:00.863Z,2.89
2024-01-20T08:36:01.911Z,2.90
2024-01-20T08:37:00.902Z,2.90
2024-01-20T08:38:01.926Z,2.99
2024-01-20T08:39:00.965Z,2.87
2024-01-20T08:40:00.972Z,2.87
2024-01-20T08:41:02.057Z,2.87
2024-01-20T08:42:01.071Z,2.83
2024-01-20T08:43:02.064Z,2.90
2024-01-20T08:44:01.063Z,2.94
2024-01-20T08:45:01.305Z,2.90
2024-01-20T08:46:02.126Z,3.05
2024-01-20T08:47:01.142Z,3.05
2024-01-20T08:48:02.226Z,3.04
2024-01-20T08:49:01.220Z,3.05
2024-01-20T08:50:01.215Z,3.05
2024-01-20T08:51:02.293Z,3.05
2024-01-20T08:52:01.260Z,2.89
2024-01-20T08:53:02.353Z,3.02
2024-01-20T08:54:01.328Z,3.02
2024-01-20T08:55:01.335Z,3.01
2024-01-20T08:56:02.375Z,3.01
2024-01-20T08:57:01.434Z,2.98
2024-01-20T08:58:02.429Z,3.04
2024-01-20T08:59:01.440Z,3.04
2024-01-20T09:00:01.494Z,3.04
2024-01-20T09:01:02.582Z,2.99
2024-01-20T09:02:01.489Z,3.04
2024-01-20T09:03:02.759Z,3.07
2024-01-20T09:04:01.544Z,3.05
2024-01-20T09:05:01.574Z,3.01
2024-01-20T09:06:02.732Z,3.01
2024-01-20T09:07:01.735Z,3.07
2024-01-20T09:08:02.657Z,3.12
2024-01-20T09:09:01.702Z,3.10
2024-01-20T09:10:01.697Z,3.22
2024-01-20T09:11:02.717Z,3.26
2024-01-20T09:12:01.765Z,3.12
2024-01-20T09:13:02.772Z,3.16
2024-01-20T09:14:02.145Z,3.30
2024-01-20T09:15:01.948Z,3.19
2024-01-20T09:16:02.962Z,3.25
2024-01-20T09:17:01.857Z,3.22
2024-01-20T09:18:02.978Z,3.08
2024-01-20T09:19:02.140Z,3.10
2024-01-20T09:20:02.203Z,3.26
2024-01-20T09:21:02.979Z,3.22
2024-01-20T09:22:01.958Z,3.23
2024-01-20T09:23:03.050Z,3.10
2024-01-20T09:24:03.029Z,3.02
2024-01-20T09:25:02.028Z,2.99
2024-01-20T09:26:03.070Z,2.99
2024-01-20T09:27:02.143Z,3.07
2024-01-20T09:28:03.121Z,2.98
2024-01-20T09:29:02.122Z,3.17
2024-01-20T09:30:02.231Z,3.15
2024-01-20T09:31:03.179Z,3.10
2024-01-20T09:32:02.204Z,3.05
2024-01-20T09:33:03.336Z,3.08
2024-01-20T09:34:02.392Z,3.17
2024-01-20T09:35:02.257Z,3.02
2024-01-20T09:36:03.342Z,2.99
2024-01-20T09:37:02.337Z,3.02
2024-01-20T09:38:03.363Z,3.08
2024-01-20T09:39:02.448Z,3.12
2024-01-20T09:40:02.427Z,3.12
2024-01-20T09:41:03.410Z,3.10
2024-01-20T09:42:02.485Z,3.15
2024-01-20T09:43:03.455Z,3.10
2024-01-20T09:44:02.492Z,3.17
2024-01-20T09:45:02.600Z,3.10
2024-01-20T09:46:03.537Z,3.17
2024-01-20T09:47:02.576Z,3.30
2024-01-20T09:48:03.704Z,3.22
2024-01-20T09:49:02.846Z,3.19
2024-01-20T09:50:02.628Z,3.23
2024-01-20T09:51:03.656Z,3.25
2024-01-20T09:52:02.670Z,3.30
2024-01-20T09:53:03.694Z,3.37
2024-01-20T09:54:02.782Z,3.44
2024-01-20T09:55:02.731Z,3.46
2024-01-20T09:56:03.782Z,3.82
2024-01-20T09:57:02.814Z,4.88
2024-01-20T09:58:03.816Z,5.09
2024-01-20T09:59:02.844Z,5.37
2024-01-20T10:00:03.008Z,5.56
2024-01-20T10:01:04.089Z,5.77
2024-01-20T10:02:02.907Z,5.69
2024-01-20T10:03:03.968Z,5.92
2024-01-20T10:04:03.113Z,5.99
2024-01-20T10:05:03.052Z,6.43
2024-01-20T10:06:04.056Z,6.17
2024-01-20T10:07:03.042Z,6.36
2024-01-20T10:08:04.070Z,5.96
2024-01-20T10:09:03.110Z,5.44
2024-01-20T10:10:03.178Z,5.20
2024-01-20T10:11:04.138Z,4.97
2024-01-20T10:12:03.185Z,4.77
2024-01-20T10:13:04.279Z,4.65
2024-01-20T10:14:03.217Z,4.62
2024-01-20T10:15:03.303Z,4.77
2024-01-20T10:16:04.257Z,4.62
2024-01-20T10:17:03.266Z,4.61
2024-01-20T10:18:04.450Z,4.72
2024-01-20T10:19:03.348Z,4.71
2024-01-20T10:20:03.503Z,4.80
2024-01-20T10:21:04.403Z,4.91
2024-01-20T10:22:03.397Z,4.93
2024-01-20T10:23:04.438Z,4.99
2024-01-20T10:24:03.486Z,4.80
2024-01-20T10:25:03.464Z,4.74
2024-01-20T10:26:04.506Z,4.75
2024-01-20T10:27:03.532Z,4.77
2024-01-20T10:28:04.562Z,4.88
2024-01-20T10:29:03.598Z,5.06
2024-01-20T10:30:03.712Z,4.97
2024-01-20T10:31:04.646Z,5.02
2024-01-20T10:32:03.729Z,5.14
2024-01-20T10:33:09.796Z,5.17
2024-01-20T10:34:04.037Z,5.32
2024-01-20T10:35:04.137Z,5.47
2024-01-20T10:36:04.953Z,5.65
2024-01-20T10:37:03.788Z,5.59
2024-01-20T10:38:04.847Z,5.60
2024-01-20T10:39:04.050Z,5.48
2024-01-20T10:40:03.888Z,5.32
2024-01-20T10:41:04.912Z,5.26
2024-01-20T10:42:03.970Z,5.35
2024-01-20T10:43:04.964Z,5.37
2024-01-20T10:44:04.087Z,5.45
2024-01-20T10:45:04.046Z,5.51
2024-01-20T10:46:05.043Z,5.60
2024-01-20T10:47:04.054Z,5.73
2024-01-20T10:48:06.182Z,5.75
2024-01-20T10:49:04.220Z,5.87
2024-01-20T10:50:04.136Z,5.88
2024-01-20T10:51:05.239Z,5.90
2024-01-20T10:52:04.282Z,5.80
2024-01-20T10:53:05.220Z,5.73
2024-01-20T10:54:04.821Z,5.88
2024-01-20T10:55:04.276Z,5.99
2024-01-20T10:56:05.305Z,5.84
2024-01-20T10:57:04.333Z,5.69
2024-01-20T10:58:05.363Z,5.58
2024-01-20T10:59:04.368Z,5.58
2024-01-20T11:00:04.497Z,5.63
2024-01-20T11:01:05.456Z,5.52
2024-01-20T11:02:04.462Z,5.44
2024-01-20T11:03:05.522Z,5.45
2024-01-20T11:04:04.712Z,5.55
2024-01-20T11:05:04.533Z,5.58
2024-01-20T11:06:05.673Z,5.48
2024-01-20T11:07:04.653Z,5.52
2024-01-20T11:08:05.635Z,5.40
2024-01-20T11:09:04.679Z,5.37
2024-01-20T11:10:04.689Z,5.20
2024-01-20T11:11:05.791Z,5.29
2024-01-20T11:12:04.909Z,5.37
2024-01-20T11:13:05.778Z,5.37
2024-01-20T11:14:04.789Z,5.32
2024-01-20T11:15:04.901Z,5.17
2024-01-20T11:16:05.858Z,5.22
2024-01-20T11:17:04.882Z,5.20
2024-01-20T11:18:05.942Z,5.29
2024-01-20T11:19:05.063Z,5.29
2024-01-20T11:20:04.954Z,5.22
2024-01-20T11:21:06.044Z,5.17
2024-01-20T11:22:05.008Z,5.08
2024-01-20T11:23:06.023Z,5.22
2024-01-20T11:24:05.087Z,5.49
2024-01-20T11:25:05.075Z,5.62
2024-01-20T11:26:06.111Z,5.59
2024-01-20T11:27:05.251Z,5.56
2024-01-20T11:28:06.171Z,5.44
2024-01-20T11:29:05.182Z,5.59
2024-01-20T11:30:05.240Z,5.58
2024-01-20T11:31:06.244Z,5.88
2024-01-20T11:32:05.267Z,6.60
2024-01-20T11:33:06.450Z,7.32
2024-01-20T11:34:05.492Z,7.69
2024-01-20T11:35:05.328Z,8.04
2024-01-20T11:36:06.416Z,8.32
2024-01-20T11:37:05.453Z,8.88
2024-01-20T11:38:06.446Z,9.55
2024-01-20T11:39:05.464Z,9.52
2024-01-20T11:40:05.501Z,9.65
2024-01-20T11:41:06.521Z,9.85
2024-01-20T11:42:05.590Z,10.18
2024-01-20T11:43:06.592Z,10.63
2024-01-20T11:44:05.614Z,10.63
2024-01-20T11:45:05.675Z,10.75
2024-01-20T11:46:06.678Z,11.03
2024-01-20T11:47:05.701Z,11.24
2024-01-20T11:48:08.223Z,11.51
2024-01-20T11:49:05.872Z,10.69
2024-01-20T11:50:05.862Z,10.57
2024-01-20T11:51:06.897Z,10.91
2024-01-20T11:52:05.860Z,11.51
2024-01-20T11:53:06.915Z,12.01
2024-01-20T11:54:05.964Z,11.70
2024-01-20T11:55:06.001Z,12.05
2024-01-20T11:56:07.005Z,12.63
2024-01-20T11:57:06.076Z,12.73
2024-01-20T11:58:07.065Z,12.66
2024-01-20T11:59:06.086Z,12.91
2024-01-20T12:00:06.357Z,12.81
2024-01-20T12:01:07.255Z,12.92
2024-01-20T12:02:06.213Z,12.89
2024-01-20T12:03:07.350Z,12.95
2024-01-20T12:04:06.256Z,13.10
2024-01-20T12:05:12.095Z,13.44
2024-01-20T12:06:09.701Z,13.75
2024-01-20T12:07:06.401Z,13.87
2024-01-20T12:08:07.438Z,13.76
2024-01-20T12:09:06.493Z,13.81
2024-01-20T12:10:06.472Z,13.86
2024-01-20T12:11:07.526Z,13.69
2024-01-20T12:12:06.568Z,14.02
2024-01-20T12:13:07.588Z,14.01
2024-01-20T12:14:06.629Z,13.99
2024-01-20T12:15:06.695Z,14.12
2024-01-20T12:16:07.704Z,14.48
2024-01-20T12:17:06.738Z,14.27
2024-01-20T12:18:07.967Z,14.45
2024-01-20T12:19:06.882Z,14.64
2024-01-20T12:20:06.848Z,14.60
2024-01-20T12:21:07.939Z,14.91
2024-01-20T12:22:06.911Z,14.74
2024-01-20T12:23:07.979Z,14.94
2024-01-20T12:24:07.020Z,15.19
2024-01-20T12:25:07.029Z,15.12
2024-01-20T12:26:08.086Z,15.51
2024-01-20T12:27:07.196Z,16.11
2024-01-20T12:28:08.157Z,16.11
2024-01-20T12:29:07.178Z,16.16
2024-01-20T12:30:07.264Z,15.86
2024-01-20T12:31:08.266Z,15.22
2024-01-20T12:32:07.295Z,15.01
2024-01-20T12:33:08.409Z,15.66
2024-01-20T12:34:07.449Z,16.08
2024-01-20T12:35:07.413Z,16.08
2024-01-20T12:36:08.531Z,15.46
2024-01-20T12:37:08.904Z,15.35
2024-01-20T12:38:08.541Z,15.27
2024-01-20T12:39:07.573Z,15.34
2024-01-20T12:40:07.600Z,14.97
2024-01-20T12:41:08.666Z,14.23
2024-01-20T12:42:07.733Z,13.76
2024-01-20T12:43:08.727Z,14.20
2024-01-20T12:44:07.768Z,14.27
2024-01-20T12:45:07.834Z,14.63
2024-01-20T12:46:08.864Z,15.41
2024-01-20T12:47:07.897Z,14.86
2024-01-20T12:48:09.001Z,14.06
2024-01-20T12:49:08.015Z,13.54
2024-01-20T12:50:08.050Z,12.58
2024-01-20T12:51:09.086Z,12.05
2024-01-20T12:52:08.100Z,11.74
2024-01-20T12:53:09.112Z,11.62
2024-01-20T12:54:08.224Z,10.95
2024-01-20T12:55:08.201Z,11.06
2024-01-20T12:56:09.239Z,10.83
2024-01-20T12:57:08.260Z,10.70
2024-01-20T12:58:09.312Z,10.52
2024-01-20T12:59:08.313Z,10.16
2024-01-20T13:00:08.420Z,10.38
2024-01-20T13:01:09.495Z,10.44
2024-01-20T13:02:08.426Z,10.75
2024-01-20T13:03:09.568Z,10.80
2024-01-20T13:04:08.499Z,10.80
2024-01-20T13:05:08.669Z,10.69
2024-01-20T13:06:09.719Z,10.87
2024-01-20T13:07:10.176Z,10.98
2024-01-20T13:08:09.657Z,10.95
2024-01-20T13:09:08.680Z,10.69
2024-01-20T13:10:08.707Z,10.70
2024-01-20T13:11:09.746Z,10.34
2024-01-20T13:12:08.797Z,10.09
2024-01-20T13:13:09.815Z,9.83
2024-01-20T13:14:08.894Z,9.63
2024-01-20T13:15:08.933Z,9.22
2024-01-20T13:16:10.018Z,9.20